sensor_id;sensor_type;location;lat;lon;timestamp;pressure;altitude;pressure_sealevel;temperature;humidity
63819;BME280;49970;54.976;73.248;2022-09-09T00:12:32;100791.69;;;9.09;81.24
63819;BME280;49970;54.976;73.248;2022-09-09T00:15:18;100792.66;;;9.08;80.70
63819;BME280;49970;54.976;73.248;2022-09-09T00:17:58;100778.44;;;8.95;80.35
63819;BME280;49970;54.976;73.248;2022-09-09T00:20:33;100802.53;;;9.05;80.07
63819;BME280;49970;54.976;73.248;2022-09-09T00:25:54;100801.16;;;8.97;80.75
63819;BME280;49970;54.976;73.248;2022-09-09T00:28:41;100804.06;;;8.93;80.67
63819;BME280;49970;54.976;73.248;2022-09-09T00:31:15;100794.56;;;8.90;80.75
63819;BME280;49970;54.976;73.248;2022-09-09T00:33:49;100798.19;;;8.88;80.98
63819;BME280;49970;54.976;73.248;2022-09-09T00:36:24;100799.22;;;8.85;80.41
63819;BME280;49970;54.976;73.248;2022-09-09T00:39:00;100801.63;;;8.74;81.22
63819;BME280;49970;54.976;73.248;2022-09-09T00:47:18;100792.34;;;8.34;82.80
63819;BME280;49970;54.976;73.248;2022-09-09T00:53:34;100782.38;;;8.23;82.83
63819;BME280;49970;54.976;73.248;2022-09-09T00:56:13;100787.81;;;8.20;83.21
63819;BME280;49970;54.976;73.248;2022-09-09T00:58:51;100779.13;;;8.18;83.36
63819;BME280;49970;54.976;73.248;2022-09-09T01:01:22;100767.44;;;8.06;83.16
63819;BME280;49970;54.976;73.248;2022-09-09T01:03:55;100768.13;;;8.10;83.47
63819;BME280;49970;54.976;73.248;2022-09-09T01:12:12;100775.78;;;8.14;83.37
63819;BME280;49970;54.976;73.248;2022-09-09T01:14:49;100778.03;;;8.22;83.33
63819;BME280;49970;54.976;73.248;2022-09-09T01:17:24;100779.66;;;8.24;82.97
63819;BME280;49970;54.976;73.248;2022-09-09T01:20:14;100790.03;;;8.28;83.31
63819;BME280;49970;54.976;73.248;2022-09-09T01:23:20;100787.47;;;8.26;83.03
63819;BME280;49970;54.976;73.248;2022-09-09T01:26:41;100800.53;;;8.29;83.14
63819;BME280;49970;54.976;73.248;2022-09-09T01:29:16;100799.47;;;8.32;82.75
63819;BME280;49970;54.976;73.248;2022-09-09T01:31:59;100796.69;;;8.35;82.67
63819;BME280;49970;54.976;73.248;2022-09-09T01:34:31;100819.31;;;8.40;82.52
63819;BME280;49970;54.976;73.248;2022-09-09T01:37:06;100800.50;;;8.46;82.36
63819;BME280;49970;54.976;73.248;2022-09-09T01:39:35;100800.66;;;8.43;82.26
63819;BME280;49970;54.976;73.248;2022-09-09T01:42:15;100812.59;;;8.51;82.21
63819;BME280;49970;54.976;73.248;2022-09-09T01:44:44;100806.31;;;8.53;81.83
63819;BME280;49970;54.976;73.248;2022-09-09T01:47:12;100811.38;;;8.56;81.82
63819;BME280;49970;54.976;73.248;2022-09-09T01:49:59;100816.50;;;8.59;81.99
63819;BME280;49970;54.976;73.248;2022-09-09T01:52:28;100818.91;;;8.64;81.65
63819;BME280;49970;54.976;73.248;2022-09-09T01:54:56;100810.91;;;8.65;81.10
63819;BME280;49970;54.976;73.248;2022-09-09T01:57:34;100801.25;;;8.64;81.10
63819;BME280;49970;54.976;73.248;2022-09-09T02:00:10;100811.25;;;8.75;80.98
63819;BME280;49970;54.976;73.248;2022-09-09T02:03:06;100811.94;;;8.79;81.24
63819;BME280;49970;54.976;73.248;2022-09-09T02:06:40;100805.28;;;8.87;80.63
63819;BME280;49970;54.976;73.248;2022-09-09T02:08:45;100810.03;;;8.96;81.26
63819;BME280;49970;54.976;73.248;2022-09-09T02:11:18;100798.09;;;9.05;80.42
63819;BME280;49970;54.976;73.248;2022-09-09T02:13:56;100807.28;;;9.14;80.36
63819;BME280;49970;54.976;73.248;2022-09-09T02:16:28;100803.38;;;9.21;80.51
63819;BME280;49970;54.976;73.248;2022-09-09T02:19:06;100802.94;;;9.29;80.33
63819;BME280;49970;54.976;73.248;2022-09-09T02:21:49;100804.19;;;9.37;79.34
63819;BME280;49970;54.976;73.248;2022-09-09T02:24:16;100798.69;;;9.40;79.05
63819;BME280;49970;54.976;73.248;2022-09-09T02:27:01;100803.53;;;9.48;79.17
63819;BME280;49970;54.976;73.248;2022-09-09T02:29:36;100812.81;;;9.55;78.85
63819;BME280;49970;54.976;73.248;2022-09-09T02:32:09;100810.75;;;9.60;78.66
63819;BME280;49970;54.976;73.248;2022-09-09T02:34:43;100806.81;;;9.67;78.94
63819;BME280;49970;54.976;73.248;2022-09-09T02:37:19;100801.25;;;9.72;78.52
63819;BME280;49970;54.976;73.248;2022-09-09T02:39:50;100809.97;;;9.88;78.46
63819;BME280;49970;54.976;73.248;2022-09-09T02:42:20;100800.34;;;10.02;77.85
63819;BME280;49970;54.976;73.248;2022-09-09T02:44:46;100799.41;;;10.17;77.61
63819;BME280;49970;54.976;73.248;2022-09-09T02:47:37;100799.25;;;10.34;77.32
63819;BME280;49970;54.976;73.248;2022-09-09T02:51:28;100803.56;;;10.64;76.73
63819;BME280;49970;54.976;73.248;2022-09-09T02:58:58;100803.91;;;11.13;75.30
63819;BME280;49970;54.976;73.248;2022-09-09T03:02:52;100785.41;;;11.39;74.88
63819;BME280;49970;54.976;73.248;2022-09-09T03:06:48;100797.34;;;11.71;73.82
63819;BME280;49970;54.976;73.248;2022-09-09T03:10:40;100792.09;;;11.97;72.87
63819;BME280;49970;54.976;73.248;2022-09-09T03:14:32;100788.78;;;12.19;72.70
63819;BME280;49970;54.976;73.248;2022-09-09T03:17:44;100781.66;;;12.32;72.67
63819;BME280;49970;54.976;73.248;2022-09-09T03:20:10;100794.16;;;12.56;71.63
63819;BME280;49970;54.976;73.248;2022-09-09T03:22:38;100792.72;;;12.76;70.23
63819;BME280;49970;54.976;73.248;2022-09-09T03:25:05;100786.50;;;12.88;70.28
63819;BME280;49970;54.976;73.248;2022-09-09T03:27:33;100785.28;;;13.05;68.76
63819;BME280;49970;54.976;73.248;2022-09-09T03:30:00;100780.72;;;13.18;69.04
63819;BME280;49970;54.976;73.248;2022-09-09T03:32:29;100779.84;;;13.30;68.77
63819;BME280;49970;54.976;73.248;2022-09-09T03:34:57;100781.88;;;13.51;67.34
63819;BME280;49970;54.976;73.248;2022-09-09T03:37:24;100783.91;;;13.58;67.41
63819;BME280;49970;54.976;73.248;2022-09-09T03:44:10;100788.72;;;13.88;64.40
63819;BME280;49970;54.976;73.248;2022-09-09T03:52:15;100787.03;;;14.21;64.68
63819;BME280;49970;54.976;73.248;2022-09-09T03:56:11;100789.09;;;14.40;63.20
63819;BME280;49970;54.976;73.248;2022-09-09T03:58:42;100777.94;;;14.46;62.89
63819;BME280;49970;54.976;73.248;2022-09-09T04:01:22;100780.63;;;14.57;63.63
63819;BME280;49970;54.976;73.248;2022-09-09T04:03:52;100786.81;;;14.69;62.56
63819;BME280;49970;54.976;73.248;2022-09-09T04:06:23;100784.22;;;14.79;61.92
63819;BME280;49970;54.976;73.248;2022-09-09T04:08:53;100784.47;;;14.87;61.73
63819;BME280;49970;54.976;73.248;2022-09-09T04:11:28;100783.13;;;14.92;61.27
63819;BME280;49970;54.976;73.248;2022-09-09T04:13:59;100793.75;;;15.04;60.82
63819;BME280;49970;54.976;73.248;2022-09-09T04:16:33;100789.63;;;15.11;59.99
63819;BME280;49970;54.976;73.248;2022-09-09T04:19:05;100785.72;;;15.15;59.72
63819;BME280;49970;54.976;73.248;2022-09-09T04:21:39;100788.75;;;15.22;58.79
63819;BME280;49970;54.976;73.248;2022-09-09T04:24:10;100787.63;;;15.24;59.91
63819;BME280;49970;54.976;73.248;2022-09-09T04:26:41;100792.78;;;15.37;59.30
63819;BME280;49970;54.976;73.248;2022-09-09T04:29:11;100786.94;;;15.43;58.50
63819;BME280;49970;54.976;73.248;2022-09-09T04:31:40;100800.50;;;15.51;58.29
63819;BME280;49970;54.976;73.248;2022-09-09T04:34:11;100787.59;;;15.56;58.81
63819;BME280;49970;54.976;73.248;2022-09-09T04:36:46;100797.38;;;15.67;58.98
63819;BME280;49970;54.976;73.248;2022-09-09T04:39:16;100791.78;;;15.70;58.87
63819;BME280;49970;54.976;73.248;2022-09-09T04:41:46;100778.44;;;15.70;57.91
63819;BME280;49970;54.976;73.248;2022-09-09T04:44:17;100789.31;;;15.78;57.74
63819;BME280;49970;54.976;73.248;2022-09-09T04:46:59;100789.47;;;15.77;57.78
63819;BME280;49970;54.976;73.248;2022-09-09T04:49:29;100774.97;;;15.79;57.41
63819;BME280;49970;54.976;73.248;2022-09-09T04:52:02;100783.63;;;15.92;56.88
63819;BME280;49970;54.976;73.248;2022-09-09T04:54:44;100773.84;;;16.03;56.64
63819;BME280;49970;54.976;73.248;2022-09-09T04:57:13;100785.44;;;16.13;56.75
63819;BME280;49970;54.976;73.248;2022-09-09T04:59:44;100778.41;;;16.12;55.59
63819;BME280;49970;54.976;73.248;2022-09-09T05:02:23;100771.84;;;15.95;56.05
63819;BME280;49970;54.976;73.248;2022-09-09T05:05:14;100774.03;;;15.80;56.56
63819;BME280;49970;54.976;73.248;2022-09-09T05:12:34;100770.25;;;15.51;57.50
63819;BME280;49970;54.976;73.248;2022-09-09T05:15:01;100775.78;;;15.38;56.49
63819;BME280;49970;54.976;73.248;2022-09-09T05:17:27;100762.91;;;15.22;56.56
63819;BME280;49970;54.976;73.248;2022-09-09T05:19:53;100763.78;;;15.11;56.74
63819;BME280;49970;54.976;73.248;2022-09-09T05:22:20;100762.72;;;15.03;57.07
63819;BME280;49970;54.976;73.248;2022-09-09T05:24:49;100757.31;;;14.93;57.58
63819;BME280;49970;54.976;73.248;2022-09-09T05:27:18;100744.69;;;14.84;56.87
63819;BME280;49970;54.976;73.248;2022-09-09T05:29:47;100740.97;;;14.75;57.61
63819;BME280;49970;54.976;73.248;2022-09-09T05:32:24;100740.41;;;14.72;58.12
63819;BME280;49970;54.976;73.248;2022-09-09T05:34:51;100739.66;;;14.69;58.29
63819;BME280;49970;54.976;73.248;2022-09-09T05:37:22;100738.56;;;14.72;59.06
63819;BME280;49970;54.976;73.248;2022-09-09T05:39:49;100735.63;;;14.75;58.77
63819;BME280;49970;54.976;73.248;2022-09-09T05:42:17;100739.75;;;14.79;58.25
63819;BME280;49970;54.976;73.248;2022-09-09T05:44:44;100736.84;;;14.82;57.46
63819;BME280;49970;54.976;73.248;2022-09-09T05:47:15;100749.94;;;14.85;57.06
63819;BME280;49970;54.976;73.248;2022-09-09T05:49:42;100759.84;;;14.83;57.15
63819;BME280;49970;54.976;73.248;2022-09-09T05:52:09;100764.47;;;14.81;57.82
63819;BME280;49970;54.976;73.248;2022-09-09T05:54:36;100768.97;;;14.81;58.10
63819;BME280;49970;54.976;73.248;2022-09-09T05:57:03;100764.97;;;14.75;57.39
63819;BME280;49970;54.976;73.248;2022-09-09T05:59:29;100771.78;;;14.68;57.98
63819;BME280;49970;54.976;73.248;2022-09-09T06:01:59;100772.16;;;14.63;59.05
63819;BME280;49970;54.976;73.248;2022-09-09T06:04:31;100772.41;;;14.60;60.13
63819;BME280;49970;54.976;73.248;2022-09-09T06:06:59;100755.19;;;14.53;60.30
63819;BME280;49970;54.976;73.248;2022-09-09T06:09:27;100744.16;;;14.58;60.24
63819;BME280;49970;54.976;73.248;2022-09-09T06:11:53;100734.25;;;14.60;60.38
63819;BME280;49970;54.976;73.248;2022-09-09T06:14:27;100732.88;;;14.65;59.91
63819;BME280;49970;54.976;73.248;2022-09-09T06:16:56;100728.50;;;14.76;60.94
63819;BME280;49970;54.976;73.248;2022-09-09T06:19:26;100709.31;;;14.82;59.85
63819;BME280;49970;54.976;73.248;2022-09-09T06:21:55;100718.00;;;14.95;57.99
63819;BME280;49970;54.976;73.248;2022-09-09T06:24:32;100711.19;;;15.02;57.89
63819;BME280;49970;54.976;73.248;2022-09-09T06:27:00;100715.03;;;15.09;57.94
63819;BME280;49970;54.976;73.248;2022-09-09T06:29:31;100708.34;;;15.15;57.24
63819;BME280;49970;54.976;73.248;2022-09-09T06:31:57;100705.13;;;15.21;58.03
63819;BME280;49970;54.976;73.248;2022-09-09T06:34:26;100690.91;;;15.32;56.43
63819;BME280;49970;54.976;73.248;2022-09-09T06:37:04;100695.00;;;15.36;56.27
63819;BME280;49970;54.976;73.248;2022-09-09T06:39:37;100690.84;;;15.43;55.34
63819;BME280;49970;54.976;73.248;2022-09-09T06:42:04;100681.44;;;15.49;55.39
63819;BME280;49970;54.976;73.248;2022-09-09T06:44:53;100688.03;;;15.65;55.52
63819;BME280;49970;54.976;73.248;2022-09-09T06:47:55;100669.38;;;15.75;55.21
63819;BME280;49970;54.976;73.248;2022-09-09T06:50:22;100667.44;;;15.77;54.59
63819;BME280;49970;54.976;73.248;2022-09-09T06:52:49;100654.78;;;15.79;54.41
63819;BME280;49970;54.976;73.248;2022-09-09T06:55:15;100657.50;;;15.89;53.76
63819;BME280;49970;54.976;73.248;2022-09-09T06:57:44;100653.34;;;16.06;54.34
63819;BME280;49970;54.976;73.248;2022-09-09T07:00:17;100644.69;;;16.23;53.55
63819;BME280;49970;54.976;73.248;2022-09-09T07:02:54;100635.25;;;16.38;52.62
63819;BME280;49970;54.976;73.248;2022-09-09T07:05:20;100636.13;;;16.49;52.01
63819;BME280;49970;54.976;73.248;2022-09-09T07:07:47;100627.69;;;16.53;51.75
63819;BME280;49970;54.976;73.248;2022-09-09T07:10:17;100629.94;;;16.58;51.18
63819;BME280;49970;54.976;73.248;2022-09-09T07:12:44;100621.91;;;16.58;51.06
63819;BME280;49970;54.976;73.248;2022-09-09T07:15:11;100615.16;;;16.54;50.73
63819;BME280;49970;54.976;73.248;2022-09-09T07:17:42;100618.81;;;16.53;51.23
63819;BME280;49970;54.976;73.248;2022-09-09T07:20:09;100608.13;;;16.53;51.22
63819;BME280;49970;54.976;73.248;2022-09-09T07:22:35;100603.78;;;16.52;51.75
63819;BME280;49970;54.976;73.248;2022-09-09T07:25:02;100574.34;;;16.42;51.83
63819;BME280;49970;54.976;73.248;2022-09-09T07:27:29;100590.09;;;16.55;50.87
63819;BME280;49970;54.976;73.248;2022-09-09T07:29:56;100587.31;;;16.56;50.24
63819;BME280;49970;54.976;73.248;2022-09-09T07:32:24;100578.00;;;16.60;50.97
63819;BME280;49970;54.976;73.248;2022-09-09T07:34:51;100578.69;;;16.62;49.95
63819;BME280;49970;54.976;73.248;2022-09-09T07:37:17;100573.91;;;16.66;50.18
63819;BME280;49970;54.976;73.248;2022-09-09T07:39:45;100568.28;;;16.69;49.90
63819;BME280;49970;54.976;73.248;2022-09-09T07:42:12;100565.47;;;16.80;50.31
63819;BME280;49970;54.976;73.248;2022-09-09T07:44:39;100551.94;;;16.91;49.56
63819;BME280;49970;54.976;73.248;2022-09-09T07:47:10;100554.47;;;17.03;49.96
63819;BME280;49970;54.976;73.248;2022-09-09T07:49:43;100558.09;;;17.11;50.67
63819;BME280;49970;54.976;73.248;2022-09-09T07:52:09;100530.50;;;17.11;49.53
63819;BME280;49970;54.976;73.248;2022-09-09T07:55:00;100546.78;;;17.27;48.35
63819;BME280;49970;54.976;73.248;2022-09-09T07:58:53;100542.00;;;17.21;48.09
63819;BME280;49970;54.976;73.248;2022-09-09T08:02:44;100545.00;;;17.18;48.75
63819;BME280;49970;54.976;73.248;2022-09-09T08:06:52;100529.91;;;17.17;48.23
63819;BME280;49970;54.976;73.248;2022-09-09T08:10:44;100533.28;;;17.19;47.86
63819;BME280;49970;54.976;73.248;2022-09-09T08:15:00;100513.72;;;17.18;47.95
63819;BME280;49970;54.976;73.248;2022-09-09T08:18:33;100507.19;;;17.21;48.41
63819;BME280;49970;54.976;73.248;2022-09-09T08:21:11;100496.31;;;17.32;48.20
63819;BME280;49970;54.976;73.248;2022-09-09T08:23:42;100490.34;;;17.38;47.87
63819;BME280;49970;54.976;73.248;2022-09-09T08:26:16;100491.91;;;17.41;47.55
63819;BME280;49970;54.976;73.248;2022-09-09T08:28:43;100484.25;;;17.46;47.88
63819;BME280;49970;54.976;73.248;2022-09-09T08:31:15;100489.72;;;17.54;47.06
63819;BME280;49970;54.976;73.248;2022-09-09T08:33:44;100482.53;;;17.55;47.73
63819;BME280;49970;54.976;73.248;2022-09-09T08:36:22;100485.91;;;17.57;47.36
63819;BME280;49970;54.976;73.248;2022-09-09T08:38:59;100493.78;;;17.58;47.88
63819;BME280;49970;54.976;73.248;2022-09-09T08:42:01;100483.06;;;17.58;47.06
63819;BME280;49970;54.976;73.248;2022-09-09T08:47:42;100467.84;;;17.59;46.24
63819;BME280;49970;54.976;73.248;2022-09-09T08:54:39;100471.91;;;17.63;47.61
63819;BME280;49970;54.976;73.248;2022-09-09T08:58:17;100465.13;;;17.68;47.35
63819;BME280;49970;54.976;73.248;2022-09-09T09:01:17;100451.25;;;17.73;45.89
63819;BME280;49970;54.976;73.248;2022-09-09T09:07:08;100454.81;;;17.91;45.50
63819;BME280;49970;54.976;73.248;2022-09-09T09:10:20;100455.91;;;17.99;43.82
63819;BME280;49970;54.976;73.248;2022-09-09T09:12:52;100443.03;;;18.02;44.02
63819;BME280;49970;54.976;73.248;2022-09-09T09:15:31;100441.56;;;18.08;44.40
63819;BME280;49970;54.976;73.248;2022-09-09T09:18:04;100442.41;;;18.08;44.29
63819;BME280;49970;54.976;73.248;2022-09-09T09:20:51;100431.31;;;18.03;43.78
63819;BME280;49970;54.976;73.248;2022-09-09T09:23:24;100420.78;;;18.10;44.00
63819;BME280;49970;54.976;73.248;2022-09-09T09:25:58;100413.44;;;18.12;43.65
63819;BME280;49970;54.976;73.248;2022-09-09T09:28:29;100424.00;;;18.13;43.31
63819;BME280;49970;54.976;73.248;2022-09-09T09:31:11;100416.81;;;18.14;43.84
63819;BME280;49970;54.976;73.248;2022-09-09T09:33:50;100414.34;;;18.21;43.66
63819;BME280;49970;54.976;73.248;2022-09-09T09:36:25;100394.69;;;18.12;43.11
63819;BME280;49970;54.976;73.248;2022-09-09T09:39:01;100397.72;;;18.17;42.92
63819;BME280;49970;54.976;73.248;2022-09-09T09:41:42;100392.00;;;18.12;43.18
63819;BME280;49970;54.976;73.248;2022-09-09T09:44:26;100387.13;;;18.07;43.66
63819;BME280;49970;54.976;73.248;2022-09-09T09:47:14;100389.44;;;18.02;42.91
63819;BME280;49970;54.976;73.248;2022-09-09T09:49:58;100394.78;;;18.02;42.75
63819;BME280;49970;54.976;73.248;2022-09-09T09:52:29;100396.47;;;18.03;43.34
63819;BME280;49970;54.976;73.248;2022-09-09T09:55:03;100385.91;;;18.02;43.31
63819;BME280;49970;54.976;73.248;2022-09-09T09:57:34;100378.84;;;18.01;43.40
63819;BME280;49970;54.976;73.248;2022-09-09T10:00:13;100379.00;;;17.99;42.90
63819;BME280;49970;54.976;73.248;2022-09-09T10:02:47;100380.31;;;17.95;43.33
63819;BME280;49970;54.976;73.248;2022-09-09T10:05:24;100370.06;;;17.90;42.96
63819;BME280;49970;54.976;73.248;2022-09-09T10:08:05;100372.88;;;17.89;42.93
63819;BME280;49970;54.976;73.248;2022-09-09T10:21:42;100373.69;;;17.81;45.24
63819;BME280;49970;54.976;73.248;2022-09-09T10:30:06;100365.63;;;17.81;45.20
63819;BME280;49970;54.976;73.248;2022-09-09T10:32:43;100358.28;;;17.83;44.75
63819;BME280;49970;54.976;73.248;2022-09-09T10:35:54;100355.53;;;17.75;44.95
63819;BME280;49970;54.976;73.248;2022-09-09T10:38:39;100365.16;;;17.86;44.45
63819;BME280;49970;54.976;73.248;2022-09-09T10:56:12;100372.66;;;18.00;46.10
63819;BME280;49970;54.976;73.248;2022-09-09T10:58:58;100371.81;;;18.00;45.95
63819;BME280;49970;54.976;73.248;2022-09-09T11:01:39;100380.69;;;18.00;46.20
63819;BME280;49970;54.976;73.248;2022-09-09T11:04:31;100379.19;;;17.98;46.23
63819;BME280;49970;54.976;73.248;2022-09-09T11:07:11;100352.38;;;17.80;46.53
63819;BME280;49970;54.976;73.248;2022-09-09T11:09:47;100375.41;;;17.90;46.47
63819;BME280;49970;54.976;73.248;2022-09-09T11:12:18;100362.97;;;17.81;47.21
63819;BME280;49970;54.976;73.248;2022-09-09T11:14:51;100374.72;;;17.88;47.52
63819;BME280;49970;54.976;73.248;2022-09-09T11:17:25;100372.03;;;17.88;48.28
63819;BME280;49970;54.976;73.248;2022-09-09T11:19:53;100377.03;;;17.83;48.91
63819;BME280;49970;54.976;73.248;2022-09-09T11:25:05;100369.63;;;17.77;48.12
63819;BME280;49970;54.976;73.248;2022-09-09T11:30:47;100367.38;;;17.73;47.52
63819;BME280;49970;54.976;73.248;2022-09-09T11:38:50;100379.72;;;17.83;46.20
63819;BME280;49970;54.976;73.248;2022-09-09T11:41:19;100379.16;;;17.80;46.60
63819;BME280;49970;54.976;73.248;2022-09-09T11:43:51;100375.94;;;17.76;46.79
63819;BME280;49970;54.976;73.248;2022-09-09T11:46:20;100380.91;;;17.71;45.86
63819;BME280;49970;54.976;73.248;2022-09-09T11:49:00;100380.53;;;17.66;45.50
63819;BME280;49970;54.976;73.248;2022-09-09T11:51:28;100382.66;;;17.62;46.36
63819;BME280;49970;54.976;73.248;2022-09-09T11:54:03;100383.97;;;17.58;46.47
63819;BME280;49970;54.976;73.248;2022-09-09T11:56:45;100388.09;;;17.53;46.31
63819;BME280;49970;54.976;73.248;2022-09-09T11:59:29;100383.22;;;17.48;46.11
63819;BME280;49970;54.976;73.248;2022-09-09T12:02:24;100388.03;;;17.45;46.56
63819;BME280;49970;54.976;73.248;2022-09-09T12:07:31;100382.41;;;17.38;45.53
63819;BME280;49970;54.976;73.248;2022-09-09T12:12:45;100384.03;;;17.31;45.45
63819;BME280;49970;54.976;73.248;2022-09-09T12:17:53;100382.66;;;17.27;46.60
63819;BME280;49970;54.976;73.248;2022-09-09T12:20:23;100373.53;;;17.20;46.80
63819;BME280;49970;54.976;73.248;2022-09-09T12:28:35;100388.78;;;17.09;46.01
63819;BME280;49970;54.976;73.248;2022-09-09T12:31:12;100386.44;;;17.06;46.05
63819;BME280;49970;54.976;73.248;2022-09-09T12:33:53;100386.00;;;17.01;46.01
63819;BME280;49970;54.976;73.248;2022-09-09T12:36:24;100389.69;;;17.00;46.43
63819;BME280;49970;54.976;73.248;2022-09-09T12:39:27;100383.94;;;16.95;46.21
63819;BME280;49970;54.976;73.248;2022-09-09T12:41:55;100383.09;;;16.95;46.46
63819;BME280;49970;54.976;73.248;2022-09-09T12:44:26;100315.13;;;16.50;46.38
63819;BME280;49970;54.976;73.248;2022-09-09T12:47:06;100386.06;;;16.91;46.74
63819;BME280;49970;54.976;73.248;2022-09-09T12:49:38;100386.22;;;16.90;47.62
63819;BME280;49970;54.976;73.248;2022-09-09T12:52:17;100387.34;;;16.87;47.60
63819;BME280;49970;54.976;73.248;2022-09-09T12:54:46;100389.34;;;16.85;47.82
63819;BME280;49970;54.976;73.248;2022-09-09T12:57:14;100367.28;;;16.74;48.09
63819;BME280;49970;54.976;73.248;2022-09-09T12:59:43;100389.47;;;16.84;48.24
63819;BME280;49970;54.976;73.248;2022-09-09T13:02:22;100385.41;;;16.80;48.79
63819;BME280;49970;54.976;73.248;2022-09-09T13:04:49;100389.25;;;16.77;48.41
63819;BME280;49970;54.976;73.248;2022-09-09T13:07:20;100389.53;;;16.74;48.90
63819;BME280;49970;54.976;73.248;2022-09-09T13:09:57;100390.63;;;16.72;48.51
63819;BME280;49970;54.976;73.248;2022-09-09T13:12:28;100385.59;;;16.68;48.74
63819;BME280;49970;54.976;73.248;2022-09-09T13:14:56;100388.69;;;16.64;49.12
63819;BME280;49970;54.976;73.248;2022-09-09T13:17:32;100389.25;;;16.58;49.25
63819;BME280;49970;54.976;73.248;2022-09-09T13:19:59;100395.59;;;16.57;49.59
63819;BME280;49970;54.976;73.248;2022-09-09T13:22:33;100392.94;;;16.57;49.77
63819;BME280;49970;54.976;73.248;2022-09-09T13:27:57;100403.78;;;16.46;50.41
63819;BME280;49970;54.976;73.248;2022-09-09T13:30:28;100407.06;;;16.39;50.74
63819;BME280;49970;54.976;73.248;2022-09-09T13:33:17;100402.28;;;16.33;50.92
63819;BME280;49970;54.976;73.248;2022-09-09T13:35:57;100402.31;;;16.24;52.29
63819;BME280;49970;54.976;73.248;2022-09-09T13:38:28;100386.84;;;16.08;51.94
63819;BME280;49970;54.976;73.248;2022-09-09T13:40:57;100404.44;;;16.10;52.86
63819;BME280;49970;54.976;73.248;2022-09-09T13:43:28;100410.75;;;16.00;52.69
63819;BME280;49970;54.976;73.248;2022-09-09T13:46:03;100399.25;;;15.89;53.31
63819;BME280;49970;54.976;73.248;2022-09-09T13:48:29;100417.94;;;15.89;53.70
63819;BME280;49970;54.976;73.248;2022-09-09T13:51:01;100415.13;;;15.81;53.86
63819;BME280;49970;54.976;73.248;2022-09-09T13:53:39;100423.53;;;15.67;54.80
63819;BME280;49970;54.976;73.248;2022-09-09T13:56:07;100424.06;;;15.61;54.50
63819;BME280;49970;54.976;73.248;2022-09-09T13:58:34;100416.31;;;15.48;55.32
63819;BME280;49970;54.976;73.248;2022-09-09T14:01:10;100427.41;;;15.43;55.49
63819;BME280;49970;54.976;73.248;2022-09-09T14:03:37;100428.94;;;15.36;56.00
63819;BME280;49970;54.976;73.248;2022-09-09T14:06:03;100434.38;;;15.25;56.05
63819;BME280;49970;54.976;73.248;2022-09-09T14:08:29;100432.97;;;15.21;57.25
63819;BME280;49970;54.976;73.248;2022-09-09T14:11:03;100446.59;;;15.18;57.07
63819;BME280;49970;54.976;73.248;2022-09-09T14:13:30;100437.19;;;15.14;57.15
63819;BME280;49970;54.976;73.248;2022-09-09T14:15:57;100415.34;;;14.99;56.90
63819;BME280;49970;54.976;73.248;2022-09-09T14:18:23;100442.78;;;15.11;56.31
63819;BME280;49970;54.976;73.248;2022-09-09T14:20:51;100439.25;;;15.01;57.05
63819;BME280;49970;54.976;73.248;2022-09-09T14:23:17;100438.34;;;14.90;57.30
63819;BME280;49970;54.976;73.248;2022-09-09T14:25:44;100446.88;;;14.84;58.19
63819;BME280;49970;54.976;73.248;2022-09-09T14:28:12;100437.00;;;14.75;58.22
63819;BME280;49970;54.976;73.248;2022-09-09T14:30:40;100443.84;;;14.68;58.81
63819;BME280;49970;54.976;73.248;2022-09-09T14:33:08;100447.63;;;14.65;59.14
63819;BME280;49970;54.976;73.248;2022-09-09T14:35:35;100449.09;;;14.58;59.38
63819;BME280;49970;54.976;73.248;2022-09-09T14:38:03;100443.09;;;14.45;59.60
63819;BME280;49970;54.976;73.248;2022-09-09T14:40:30;100453.75;;;14.45;59.99
63819;BME280;49970;54.976;73.248;2022-09-09T14:43:09;100446.41;;;14.37;60.25
63819;BME280;49970;54.976;73.248;2022-09-09T14:45:36;100456.88;;;14.29;60.46
63819;BME280;49970;54.976;73.248;2022-09-09T14:48:03;100436.75;;;14.15;60.21
63819;BME280;49970;54.976;73.248;2022-09-09T14:50:29;100437.97;;;14.11;61.06
63819;BME280;49970;54.976;73.248;2022-09-09T14:53:06;100446.47;;;14.05;61.05
63819;BME280;49970;54.976;73.248;2022-09-09T14:55:33;100433.81;;;13.98;62.17
63819;BME280;49970;54.976;73.248;2022-09-09T14:58:01;100439.75;;;13.90;62.31
63819;BME280;49970;54.976;73.248;2022-09-09T15:00:27;100445.09;;;13.90;62.97
63819;BME280;49970;54.976;73.248;2022-09-09T15:02:54;100455.53;;;13.82;63.28
63819;BME280;49970;54.976;73.248;2022-09-09T15:05:22;100459.09;;;13.71;63.80
63819;BME280;49970;54.976;73.248;2022-09-09T15:07:55;100450.53;;;13.56;63.91
63819;BME280;49970;54.976;73.248;2022-09-09T15:10:27;100456.22;;;13.52;64.56
63819;BME280;49970;54.976;73.248;2022-09-09T15:12:58;100449.09;;;13.41;64.85
63819;BME280;49970;54.976;73.248;2022-09-09T15:15:35;100451.16;;;13.37;65.02
63819;BME280;49970;54.976;73.248;2022-09-09T15:18:01;100453.09;;;13.35;65.02
63819;BME280;49970;54.976;73.248;2022-09-09T15:20:27;100438.88;;;13.25;65.41
63819;BME280;49970;54.976;73.248;2022-09-09T15:22:58;100442.19;;;13.16;65.40
63819;BME280;49970;54.976;73.248;2022-09-09T15:25:24;100452.59;;;13.19;65.29
63819;BME280;49970;54.976;73.248;2022-09-09T15:27:51;100445.84;;;13.15;65.71
63819;BME280;49970;54.976;73.248;2022-09-09T15:30:17;100450.56;;;13.11;65.77